Time;durP1;ratioP1;P1;durP2;ratioP2;P2;SDS_P1;SDS_P2;PMS_P1;PMS_P2;Temp;Humidity;BMP_temperature;BMP_pressure;BME280_temperature;BME280_humidity;BME280_pressure;Samples;Min_cycle;Max_cycle;Signal;HPM_P1;HPM_P2
2021/10/01 00:00:34;;;;;;;3.33;1.30;;;13.80;99.90;;;13.31;100.00;101677.81;4118150;28;20057;-74
2021/10/01 00:02:35;;;;;;;5.55;1.65;;;13.80;99.90;;;13.39;100.00;101671.75;4118386;28;20057;-74
2021/10/01 00:04:36;;;;;;;4.63;1.33;;;13.80;99.90;;;13.42;100.00;101669.63;4134379;28;20030;-74
2021/10/01 00:06:37;;;;;;;6.18;1.60;;;13.80;99.90;;;13.43;100.00;101668.66;4118271;28;20058;-74
2021/10/01 00:08:38;;;;;;;5.40;1.48;;;13.80;99.90;;;13.32;100.00;101660.13;4150113;28;20429;-74
2021/10/01 00:10:39;;;;;;;2.55;1.40;;;13.80;99.90;;;13.24;100.00;101653.75;4119397;28;20038;-74
2021/10/01 00:12:40;;;;;;;5.20;1.50;;;13.80;99.90;;;13.32;100.00;101653.81;4102124;28;20054;-74
2021/10/01 00:14:41;;;;;;;5.00;1.42;;;13.70;99.90;;;13.53;100.00;101660.63;4119270;28;20034;-74
2021/10/01 00:16:42;;;;;;;5.03;1.58;;;13.80;99.90;;;13.52;100.00;101646.56;4117933;28;20023;-74
2021/10/01 00:18:44;;;;;;;6.13;1.67;;;13.90;99.90;;;13.43;100.00;101639.50;4134146;28;20033;-74
2021/10/01 00:20:45;;;;;;;5.38;1.40;;;13.80;99.90;;;13.39;100.00;101645.25;4101963;28;20043;-74
2021/10/01 00:22:46;;;;;;;4.15;1.60;;;13.80;99.90;;;13.43;100.00;101633.38;4118894;28;20035;-74
2021/10/01 00:24:48;;;;;;;4.60;1.63;;;13.80;99.90;;;13.39;100.00;101638.13;4119098;28;20068;-74
2021/10/01 00:26:49;;;;;;;4.25;2.08;;;13.80;99.90;;;13.31;100.00;101630.13;4118073;28;20058;-74
2021/10/01 00:28:50;;;;;;;3.10;1.33;;;13.80;99.90;;;13.48;100.00;101625.78;4133928;28;20114;-74
2021/10/01 00:30:50;;;;;;;4.55;2.30;;;13.90;99.90;;;13.49;100.00;101623.00;4117942;28;20514;-74
2021/10/01 00:32:53;;;;;;;5.45;1.30;;;13.90;99.90;;;13.41;100.00;101609.66;4149948;28;20100;-74
2021/10/01 00:34:53;;;;;;;4.18;1.30;;;13.90;99.90;;;13.60;100.00;101614.78;4117687;28;20038;-74
2021/10/01 00:36:54;;;;;;;4.60;1.30;;;13.90;99.90;;;13.64;100.00;101604.72;4118765;28;20027;-74
2021/10/01 00:38:58;;;;;;;7.70;3.05;;;14.00;99.90;;;13.53;100.00;101608.44;4118952;28;20397;-74
2021/10/01 00:40:59;;;;;;;4.22;1.60;;;14.00;99.90;;;13.60;100.00;101604.19;4118998;28;20027;-74
2021/10/01 00:43:00;;;;;;;8.05;1.80;;;14.00;99.90;;;13.61;100.00;101584.66;4118982;28;20073;-74
2021/10/01 00:45:01;;;;;;;5.68;1.65;;;14.00;99.90;;;13.70;100.00;101596.16;4118908;28;20061;-74
2021/10/01 00:47:03;;;;;;;5.65;1.77;;;14.00;99.90;;;13.59;100.00;101593.75;4117632;28;20060;-74
2021/10/01 00:49:04;;;;;;;4.53;1.67;;;14.00;99.90;;;13.61;100.00;101589.13;4118533;28;20062;-74
2021/10/01 00:51:06;;;;;;;3.70;1.73;;;14.00;99.90;;;13.62;100.00;101582.84;4118565;28;20125;-74
2021/10/01 00:53:07;;;;;;;4.93;1.27;;;14.00;99.90;;;13.68;100.00;101583.03;4117383;28;20053;-74
2021/10/01 00:55:09;;;;;;;3.05;1.40;;;14.10;99.90;;;13.69;100.00;101579.41;4118734;28;20055;-74
2021/10/01 00:57:11;;;;;;;5.10;1.75;;;14.10;99.90;;;13.64;100.00;101580.84;4118536;28;20027;-74
2021/10/01 00:59:12;;;;;;;5.88;2.03;;;14.10;99.90;;;13.64;100.00;101576.38;4117593;28;20105;-74
2021/10/01 01:01:13;;;;;;;5.88;1.40;;;14.10;99.90;;;13.63;100.00;101569.41;4117533;28;20100;-74
2021/10/01 01:03:14;;;;;;;5.88;2.00;;;14.10;99.90;;;13.67;100.00;101573.44;4118113;28;20049;-74
2021/10/01 01:05:15;;;;;;;7.20;1.40;;;14.10;99.90;;;13.67;100.00;101565.47;4117397;28;20102;-74
2021/10/01 01:07:38;;;;;;;4.88;1.55;;;14.10;99.90;;;13.68;100.00;101561.81;4117330;28;20066;-74
2021/10/01 01:10:03;;;;;;;7.82;2.17;;;14.00;99.90;;;13.68;100.00;101563.63;4117363;28;20031;-74
2021/10/01 01:12:28;;;;;;;4.72;1.52;;;14.10;99.90;;;13.69;100.00;101554.69;4118677;28;20058;-74
2021/10/01 01:14:41;;;;;;;4.70;1.40;;;14.10;99.90;;;13.72;100.00;101551.72;4118692;28;20078;-74
2021/10/01 01:16:44;;;;;;;5.10;1.48;;;14.10;99.90;;;13.62;100.00;101543.88;4133428;28;20080;-74
2021/10/01 01:18:48;;;;;;;3.58;1.65;;;14.00;99.90;;;13.63;100.00;101534.13;4133502;28;20026;-74
2021/10/01 01:20:55;;;;;;;;;;;14.00;99.90;;;13.48;100.00;101531.19;4133750;28;20038;-74
2021/10/01 01:23:52;;;;;;;3.90;1.45;;;14.00;99.90;;;13.48;100.00;101525.91;4101223;28;19910;-74
2021/10/01 01:26:42;;;;;;;3.13;1.65;;;13.90;99.90;;;13.67;100.00;101519.56;4113761;28;20046;-74
2021/10/01 01:29:19;;;;;;;5.20;1.50;;;14.00;99.90;;;13.62;100.00;101511.25;4118332;28;20034;-74
2021/10/01 01:31:44;;;;;;;6.47;1.75;;;14.00;99.90;;;13.64;100.00;101517.22;4118427;28;20034;-74
2021/10/01 01:33:47;;;;;;;6.20;1.88;;;13.90;99.90;;;13.51;100.00;101507.03;4118244;28;20140;-74
2021/10/01 01:35:55;;;;;;;6.03;1.75;;;13.90;99.90;;;13.44;100.00;101508.63;4118134;28;20019;-74
2021/10/01 01:38:04;;;;;;;4.85;1.42;;;13.90;99.90;;;13.34;100.00;101499.13;4101146;28;20038;-74
2021/10/01 01:40:08;;;;;;;5.45;1.55;;;13.80;99.90;;;13.42;100.00;101504.47;4117198;28;20468;-74
2021/10/01 01:42:10;;;;;;;6.20;2.03;;;13.80;99.90;;;13.32;100.00;101503.78;4117004;28;20030;-74
2021/10/01 01:44:12;;;;;;;3.20;1.85;;;13.80;99.90;;;13.27;100.00;101491.81;4116884;28;20035;-74
2021/10/01 01:46:13;;;;;;;6.60;1.73;;;13.80;99.90;;;13.28;100.00;101495.28;4117100;28;20383;-74
2021/10/01 01:48:14;;;;;;;3.90;1.67;;;13.70;99.90;;;13.30;100.00;101494.16;4115637;28;20490;-74
2021/10/01 01:50:17;;;;;;;2.90;1.33;;;13.80;99.90;;;13.31;100.00;101489.69;4116815;28;20051;-74
2021/10/01 01:52:20;;;;;;;4.68;1.60;;;13.80;99.90;;;13.37;100.00;101482.94;4116590;28;20042;-74
2021/10/01 01:54:23;;;;;;;4.00;1.77;;;13.80;99.90;;;13.40;100.00;101485.25;4116965;28;20023;-74
2021/10/01 01:56:26;;;;;;;6.88;1.40;;;13.80;99.90;;;13.37;100.00;101474.97;4116924;28;20019;-74
2021/10/01 01:58:28;;;;;;;10.13;1.75;;;13.80;99.90;;;13.42;100.00;101477.97;4116905;28;20035;-74
2021/10/01 02:00:30;;;;;;;4.72;1.52;;;13.90;99.90;;;13.28;100.00;101460.84;4117919;28;20038;-74
2021/10/01 02:02:32;;;;;;;8.65;2.13;;;13.90;99.90;;;13.39;100.00;101463.22;4118102;28;20030;-74
2021/10/01 02:04:35;;;;;;;2.85;1.38;;;13.90;99.90;;;13.53;100.00;101459.19;4116850;28;20031;-74
2021/10/01 02:06:38;;;;;;;7.00;1.75;;;13.90;99.90;;;13.50;100.00;101459.50;4116796;28;20035;-74
2021/10/01 02:08:40;;;;;;;3.90;1.45;;;13.90;99.90;;;13.45;100.00;101459.94;4117562;28;20065;-74
2021/10/01 02:10:41;;;;;;;4.78;1.50;;;13.90;99.90;;;13.68;100.00;101449.63;4116797;28;20034;-74
2021/10/01 02:12:46;;;;;;;3.92;1.25;;;14.00;99.90;;;13.65;100.00;101449.97;4132766;28;20095;-74
2021/10/01 02:14:51;;;;;;;4.47;1.77;;;14.00;99.90;;;13.71;100.00;101450.13;4131950;28;20129;-74
2021/10/01 02:16:57;;;;;;;5.28;1.30;;;14.10;99.90;;;13.56;100.00;101454.38;4116562;28;20023;-74
2021/10/01 02:19:00;;;;;;;5.28;1.60;;;14.00;99.90;;;13.61;100.00;101454.75;4100926;28;20042;-74
2021/10/01 02:21:02;;;;;;;4.28;1.25;;;14.00;99.90;;;13.60;100.00;101436.34;4117787;28;20033;-74
2021/10/01 02:23:05;;;;;;;3.80;1.95;;;14.00;99.90;;;13.70;100.00;101447.66;4116269;28;20510;-74
2021/10/01 02:25:06;;;;;;;6.05;1.63;;;14.10;99.90;;;13.66;100.00;101433.88;4116632;28;20085;-74
2021/10/01 02:27:34;;;;;;;4.38;1.52;;;14.10;99.90;;;13.61;100.00;101440.66;4116580;28;20042;-74
2021/10/01 02:29:47;;;;;;;9.93;2.75;;;14.00;99.90;;;13.67;100.00;101445.34;4117523;28;20027;-74
2021/10/01 02:31:56;;;;;;;5.82;1.48;;;14.10;99.90;;;13.64;100.00;101435.88;4117734;28;20037;-74
2021/10/01 02:34:03;;;;;;;6.80;1.60;;;14.00;99.90;;;13.73;100.00;101431.44;4117619;28;20479;-74
2021/10/01 02:36:04;;;;;;;6.75;1.42;;;14.10;99.90;;;13.63;100.00;101430.72;4116338;28;20030;-74
2021/10/01 02:38:05;;;;;;;6.68;2.05;;;14.10;99.90;;;13.55;100.00;101426.22;4117424;28;20062;-74
2021/10/01 02:40:08;;;;;;;6.43;2.67;;;14.00;99.90;;;13.65;100.00;101424.25;4116462;28;20039;-74
2021/10/01 02:42:11;;;;;;;4.82;1.45;;;14.10;99.90;;;13.63;100.00;101420.94;4117410;28;20030;-74
2021/10/01 02:44:12;;;;;;;4.00;1.50;;;14.10;99.90;;;13.51;100.00;101424.88;4116143;28;20090;-74
2021/10/01 02:46:13;;;;;;;4.63;1.42;;;14.10;99.90;;;13.51;100.00;101408.13;4117604;28;20113;-74
2021/10/01 02:48:14;;;;;;;5.07;1.45;;;14.00;99.90;;;13.56;100.00;101408.50;4117343;28;20034;-74
2021/10/01 02:50:18;;;;;;;3.50;1.08;;;14.00;99.90;;;13.51;100.00;101398.38;4116093;28;20050;-74
2021/10/01 02:52:47;;;;;;;5.28;1.48;;;14.00;99.90;;;13.60;100.00;101401.88;4115959;28;20425;-74
2021/10/01 02:55:07;;;;;;;7.90;1.80;;;14.00;99.90;;;13.55;100.00;101398.88;4116416;28;20027;-74
2021/10/01 02:57:15;;;;;;;5.80;1.73;;;14.10;99.90;;;13.57;100.00;101396.91;4132996;28;20079;-74
2021/10/01 02:59:18;;;;;;;5.50;1.50;;;14.00;99.90;;;13.67;100.00;101405.56;4116323;28;20031;-74
2021/10/01 03:01:23;;;;;;;6.28;1.50;;;14.00;99.90;;;13.65;100.00;101404.91;4116216;28;20042;-74
2021/10/01 03:03:31;;;;;;;5.53;1.60;;;14.10;99.90;;;13.59;100.00;101390.44;4116190;28;20046;-74
2021/10/01 03:05:32;;;;;;;4.60;1.38;;;14.10;99.90;;;13.65;100.00;101394.28;4116303;28;20059;-74
2021/10/01 03:07:35;;;;;;;3.85;1.83;;;14.10;99.90;;;13.66;100.00;101393.28;4115998;28;20027;-74
2021/10/01 03:09:36;;;;;;;6.53;1.90;;;14.10;99.90;;;13.60;100.00;101385.97;4116086;28;20038;-74
2021/10/01 03:11:38;;;;;;;5.78;1.50;;;14.10;99.90;;;13.70;100.00;101391.97;4116053;28;20371;-74
2021/10/01 03:13:47;;;;;;;3.92;1.33;;;14.10;99.90;;;13.77;100.00;101382.38;4116236;28;20026;-74
2021/10/01 03:15:54;;;;;;;6.07;1.80;;;14.10;99.90;;;13.74;100.00;101374.75;4117268;28;20038;-74
2021/10/01 03:17:55;;;;;;;6.18;2.05;;;14.20;99.90;;;13.66;100.00;101377.38;4115997;28;20441;-74
2021/10/01 03:19:57;;;;;;;8.63;2.15;;;14.10;99.90;;;13.55;100.00;101370.56;4116084;28;20027;-74
2021/10/01 03:21:59;;;;;;;5.07;2.28;;;14.10;99.90;;;13.60;100.00;101370.91;4116964;28;20030;-74
2021/10/01 03:24:00;;;;;;;8.48;2.20;;;14.10;99.90;;;13.63;100.00;101369.75;4117138;28;20027;-74
2021/10/01 03:26:02;;;;;;;4.50;1.35;;;14.00;99.90;;;13.62;100.00;101362.81;4115916;28;20027;-74
2021/10/01 03:28:03;;;;;;;4.35;1.23;;;14.00;99.90;;;13.53;100.00;101359.25;4118545;28;20031;-74
2021/10/01 03:30:08;;;;;;;6.63;1.63;;;13.90;99.90;;;13.46;100.00;101355.63;4118881;28;20027;-74
2021/10/01 03:32:11;;;;;;;6.05;1.40;;;13.90;99.90;;;13.48;100.00;101358.94;4118722;28;20061;-74
2021/10/01 03:34:12;;;;;;;5.00;1.58;;;13.90;99.90;;;13.50;100.00;101353.47;4119836;28;20027;-74
2021/10/01 03:36:14;;;;;;;8.30;1.63;;;13.90;99.90;;;13.52;100.00;101359.44;4118591;28;20027;-74
2021/10/01 03:38:16;;;;;;;6.07;1.52;;;13.90;99.90;;;13.51;100.00;101349.81;4118493;28;20099;-74
2021/10/01 03:40:18;;;;;;;4.75;1.40;;;13.90;99.90;;;13.52;100.00;101356.78;4118720;28;20054;-74
2021/10/01 03:42:18;;;;;;;4.80;1.65;;;13.90;99.90;;;13.44;100.00;101349.63;4102359;28;20032;-74
2021/10/01 03:44:19;;;;;;;5.05;2.15;;;13.90;99.90;;;13.50;100.00;101353.47;4119658;28;20090;-74
2021/10/01 03:46:20;;;;;;;4.20;1.20;;;13.90;99.90;;;13.52;100.00;101351.50;4102461;28;20035;-74
2021/10/01 03:48:21;;;;;;;7.40;1.52;;;13.90;99.90;;;13.50;100.00;101346.31;4119535;28;20171;-74
2021/10/01 03:50:22;;;;;;;6.13;1.55;;;13.90;99.90;;;13.49;100.00;101346.50;4102344;29;20055;-74
2021/10/01 03:52:23;;;;;;;4.55;1.75;;;14.00;99.90;;;13.49;100.00;101335.91;4116899;28;20056;-74
2021/10/01 03:54:24;;;;;;;2.22;1.15;;;14.00;99.90;;;13.52;100.00;101340.88;4119766;28;20038;-74
2021/10/01 03:56:25;;;;;;;6.95;1.48;;;13.90;99.90;;;13.56;100.00;101342.25;4102301;28;20023;-74
2021/10/01 03:58:26;;;;;;;6.18;1.40;;;14.00;99.90;;;13.52;100.00;101335.59;4119561;28;20035;-74
2021/10/01 04:00:28;;;;;;;6.70;1.90;;;14.00;99.90;;;13.47;100.00;101333.41;4119402;28;20027;-74
2021/10/01 04:02:29;;;;;;;4.65;2.15;;;14.00;99.90;;;13.43;100.00;101320.66;4119571;28;20104;-74
2021/10/01 04:04:30;;;;;;;3.85;1.75;;;14.00;99.90;;;13.50;100.00;101326.97;4118302;28;20023;-74
2021/10/01 04:06:31;;;;;;;6.43;1.77;;;14.00;99.90;;;13.45;100.00;101323.94;4118224;28;20042;-74
2021/10/01 04:08:33;;;;;;;5.82;1.85;;;14.00;99.90;;;13.47;100.00;101319.34;4119021;28;20035;-74
2021/10/01 04:10:34;;;;;;;5.28;1.60;;;14.00;99.90;;;13.52;100.00;101309.91;4118343;28;20030;-74
2021/10/01 04:12:35;;;;;;;3.10;1.30;;;14.00;99.90;;;13.59;100.00;101320.72;4118199;28;20027;-74
2021/10/01 04:14:36;;;;;;;5.93;1.80;;;14.00;99.90;;;13.63;100.00;101316.72;4119422;28;20022;-74
2021/10/01 04:16:36;;;;;;;7.50;1.63;;;14.00;99.90;;;13.71;100.00;101319.38;4119290;28;20034;-74
2021/10/01 04:18:37;;;;;;;4.82;1.60;;;14.10;99.90;;;13.66;100.00;101305.78;4118185;28;20050;-74
2021/10/01 04:20:41;;;;;;;6.90;2.55;;;14.10;99.90;;;13.64;100.00;101298.03;4150473;28;20072;-74
2021/10/01 04:22:41;;;;;;;4.93;1.53;;;14.10;99.90;;;13.67;100.00;101303.00;4117973;28;20027;-74
2021/10/01 04:24:42;;;;;;;3.42;1.30;;;14.10;99.90;;;13.66;100.00;101295.19;4119200;28;20033;-74
2021/10/01 04:26:44;;;;;;;4.03;1.38;;;14.10;99.90;;;13.69;100.00;101294.88;4118247;28;20033;-74
2021/10/01 04:28:46;;;;;;;6.95;1.67;;;14.10;99.90;;;13.80;100.00;101294.53;4119246;28;20077;-74
2021/10/01 04:30:50;;;;;;;4.85;1.38;;;14.20;99.90;;;13.84;100.00;101294.06;4118107;28;20015;-74
2021/10/01 04:33:01;;;;;;;6.63;1.50;;;14.20;99.90;;;13.76;100.00;101282.63;4118191;28;20141;-74
2021/10/01 04:35:08;;;;;;;6.13;2.08;;;14.20;99.90;;;13.79;100.00;101292.91;4119273;28;20057;-74
2021/10/01 04:37:09;;;;;;;4.22;1.58;;;14.20;99.90;;;13.92;100.00;101293.25;4133784;28;20488;-74
2021/10/01 04:39:10;;;;;;;7.63;1.55;;;14.30;99.90;;;13.90;100.00;101297.88;4100969;28;20035;-74
2021/10/01 04:41:11;;;;;;;5.32;1.80;;;14.30;99.90;;;14.00;100.00;101281.81;4118178;28;20057;-74
2021/10/01 04:43:12;;;;;;;8.65;1.70;;;14.30;99.90;;;13.95;100.00;101290.25;4117963;28;20027;-74
2021/10/01 04:45:13;;;;;;;6.57;1.60;;;14.40;99.90;;;13.93;100.00;101286.13;4119201;28;20266;-74
2021/10/01 04:47:14;;;;;;;8.65;2.03;;;14.40;99.90;;;14.12;100.00;101289.31;4119007;28;20026;-74
2021/10/01 04:49:15;;;;;;;3.45;1.45;;;14.40;99.90;;;14.05;100.00;101282.16;4117626;28;20065;-74
2021/10/01 04:51:17;;;;;;;4.78;1.50;;;14.50;99.90;;;14.27;100.00;101278.84;4118875;28;20097;-74
2021/10/01 04:53:18;;;;;;;6.28;1.65;;;14.60;99.90;;;14.29;100.00;101272.38;4118732;28;20031;-74
2021/10/01 04:55:19;;;;;;;6.00;2.03;;;14.60;99.90;;;14.33;100.00;101283.53;4118918;28;20047;-74
2021/10/01 04:57:20;;;;;;;6.35;2.75;;;14.70;99.90;;;14.43;100.00;101278.00;4117834;28;20027;-74
2021/10/01 04:59:21;;;;;;;6.97;2.00;;;14.70;99.90;;;14.39;100.00;101267.72;4101767;28;20098;-74
2021/10/01 05:01:22;;;;;;;7.53;1.80;;;14.80;99.90;;;14.51;100.00;101280.69;4150027;28;20072;-74
2021/10/01 05:03:22;;;;;;;8.90;2.33;;;14.80;99.90;;;14.57;100.00;101270.22;4118849;28;20034;-74
2021/10/01 05:05:23;;;;;;;8.10;2.72;;;14.90;99.90;;;14.61;100.00;101281.31;4118732;28;20030;-74
2021/10/01 05:07:24;;;;;;;7.63;2.40;;;15.00;99.90;;;14.61;100.00;101273.34;4118694;28;20548;-74
2021/10/01 05:09:25;;;;;;;8.18;1.80;;;15.00;99.90;;;14.59;100.00;101278.00;4118753;28;20452;-74
2021/10/01 05:11:26;;;;;;;3.95;1.83;;;15.00;99.90;;;14.70;100.00;101274.97;4118626;28;20034;-74
2021/10/01 05:13:27;;;;;;;9.52;1.48;;;15.00;99.90;;;14.74;100.00;101279.78;4118522;28;20114;-74
2021/10/01 05:15:28;;;;;;;4.50;1.90;;;15.10;99.90;;;14.58;100.00;101260.41;4118653;28;20405;-74
2021/10/01 05:17:29;;;;;;;7.53;2.22;;;15.10;99.90;;;14.65;100.00;101269.34;4117413;28;20045;-74
2021/10/01 05:19:30;;;;;;;8.85;1.85;;;15.10;99.90;;;14.70;100.00;101267.00;4117425;28;20448;-74
2021/10/01 05:21:31;;;;;;;10.60;2.40;;;15.10;99.90;;;14.74;100.00;101273.66;4133352;28;20058;-74
2021/10/01 05:23:32;;;;;;;8.30;1.88;;;15.10;99.90;;;14.70;100.00;101267.84;4118809;28;20489;-74
2021/10/01 05:25:33;;;;;;;7.65;1.65;;;15.10;99.90;;;14.69;100.00;101260.06;4118634;28;20053;-74
2021/10/01 05:27:35;;;;;;;4.93;1.65;;;15.10;99.90;;;14.71;100.00;101258.91;4133275;28;20488;-74
2021/10/01 05:29:36;;;;;;;6.57;1.92;;;15.20;99.90;;;14.65;100.00;101253.44;4117061;28;20211;-74
2021/10/01 05:31:37;;;;;;;7.65;1.88;;;15.10;99.90;;;14.68;100.00;101259.22;4117040;28;20556;-75
2021/10/01 05:33:38;;;;;;;13.27;1.80;;;15.10;99.90;;;14.70;100.00;101259.03;4117262;28;20031;-74
2021/10/01 05:35:43;;;;;;;5.40;1.88;;;15.10;99.90;;;14.66;100.00;101260.41;4117114;28;20110;-74
2021/10/01 05:37:45;;;;;;;6.75;1.90;;;15.20;99.90;;;14.70;100.00;101259.88;4116811;28;20049;-74
2021/10/01 05:39:46;;;;;;;9.77;1.75;;;15.10;99.90;;;14.65;100.00;101246.28;4118335;28;20059;-74
2021/10/01 05:41:47;;;;;;;9.25;1.75;;;15.10;99.90;;;14.73;100.00;101253.41;4118335;28;20038;-74
2021/10/01 05:43:48;;;;;;;8.13;1.90;;;15.10;99.90;;;14.76;100.00;101258.38;4117021;28;20023;-74
2021/10/01 05:45:49;;;;;;;7.90;1.80;;;15.10;99.90;;;14.76;100.00;101253.06;4149344;28;20034;-74
2021/10/01 05:47:50;;;;;;;4.30;1.33;;;15.20;99.90;;;14.78;100.00;101251.88;4118110;28;20035;-75
2021/10/01 05:49:51;;;;;;;6.05;1.50;;;15.20;99.90;;;14.77;100.00;101250.25;4117777;28;20387;-74
2021/10/01 05:51:58;;;;;;;8.25;2.15;;;15.10;99.90;;;14.85;100.00;101246.72;4118040;28;20027;-74
2021/10/01 05:54:11;;;;;;;4.90;1.50;;;15.20;99.90;;;14.89;100.00;101240.06;4118062;28;20026;-74
2021/10/01 05:56:13;;;;;;;4.97;1.77;;;15.20;99.90;;;14.94;100.00;101240.38;4118217;28;20482;-74
2021/10/01 05:58:14;;;;;;;7.32;2.00;;;15.20;99.90;;;14.84;100.00;101231.81;4116986;28;20023;-74
2021/10/01 06:00:16;;;;;;;7.32;2.20;;;15.30;99.90;;;14.88;100.00;101233.94;4100817;28;20054;-74
2021/10/01 06:02:20;;;;;;;6.10;2.15;;;15.30;99.90;;;14.80;100.00;101231.31;4116916;28;20038;-74
2021/10/01 06:04:21;;;;;;;;;;;15.30;99.90;;;14.89;100.00;101240.06;4118925;28;20514;-74
2021/10/01 06:06:22;;;;;;;9.68;2.08;;;15.30;99.90;;;14.91;100.00;101244.22;4117943;28;19917;-74
2021/10/01 06:08:23;;;;;;;7.88;2.42;;;15.30;99.90;;;14.82;100.00;101231.97;4101402;28;20107;-74
2021/10/01 06:10:24;;;;;;;10.02;2.38;;;15.30;99.90;;;14.92;100.00;101227.28;4118999;28;20023;-74
2021/10/01 06:12:25;;;;;;;5.18;1.98;;;15.40;99.90;;;15.02;100.00;101228.91;4119194;28;20030;-74
2021/10/01 06:14:26;;;;;;;6.28;1.52;;;15.30;99.90;;;15.01;100.00;101232.56;4118816;28;20019;-74
2021/10/01 06:16:27;;;;;;;6.45;2.22;;;15.40;99.90;;;15.00;100.00;101226.41;4101892;28;20032;-74
2021/10/01 06:18:28;;;;;;;7.15;1.70;;;15.40;99.90;;;14.98;100.00;101223.09;4119195;28;20124;-74
2021/10/01 06:20:30;;;;;;;7.28;1.60;;;15.40;99.90;;;14.96;100.00;101223.25;4117993;28;20086;-74
2021/10/01 06:22:31;;;;;;;6.80;1.98;;;15.40;99.90;;;14.95;100.00;101216.31;4117654;28;20043;-74
2021/10/01 06:24:32;;;;;;;7.47;1.65;;;15.40;99.90;;;14.96;100.00;101212.63;4117591;28;20184;-75
2021/10/01 06:26:33;;;;;;;5.97;1.77;;;15.50;99.90;;;14.95;100.00;101210.16;4118971;28;20026;-74
2021/10/01 06:28:34;;;;;;;7.60;2.03;;;15.40;99.90;;;14.96;100.00;101209.19;4118996;28;20035;-74
2021/10/01 06:30:36;;;;;;;15.05;2.25;;;15.40;99.90;;;15.03;100.00;101211.94;4115466;28;20019;-73
2021/10/01 06:32:38;;;;;;;7.80;2.22;;;15.50;99.90;;;15.02;100.00;101203.16;4115509;28;20027;-74
2021/10/01 06:34:39;;;;;;;4.47;1.30;;;15.50;99.90;;;15.09;100.00;101206.78;4116202;28;20019;-74
2021/10/01 06:36:41;;;;;;;12.52;3.45;;;15.50;99.90;;;15.07;100.00;101202.63;4117813;28;20035;-73
2021/10/01 06:38:43;;;;;;;11.35;2.65;;;15.60;99.90;;;15.00;100.00;101205.16;4114122;28;20030;-73
2021/10/01 06:40:43;;;;;;;7.90;1.60;;;15.60;99.90;;;15.03;100.00;101204.81;4116991;28;20091;-73
2021/10/01 06:42:48;;;;;;;6.30;2.05;;;15.50;99.90;;;15.08;100.00;101202.47;4117187;28;20030;-74
2021/10/01 06:44:52;;;;;;;9.75;2.05;;;15.60;99.90;;;15.15;100.00;101198.09;4132016;28;20052;-74
2021/10/01 06:46:59;;;;;;;8.05;2.33;;;15.60;99.90;;;15.15;100.00;101200.75;4114179;28;20027;-74
2021/10/01 07:21:48;;;;;;;8.02;2.63;;;16.10;99.90;;;15.45;100.00;101210.56;4116467;28;20099;-74
2021/10/01 08:19:44;;;;;;;6.15;2.30;;;15.90;99.90;;;15.26;100.00;101192.38;4119132;28;20061;-74
2021/10/01 08:21:46;;;;;;;6.68;1.80;;;15.80;99.90;;;15.32;100.00;101204.97;4117078;28;20077;-76
2021/10/01 08:23:47;;;;;;;8.85;2.28;;;15.90;99.90;;;15.35;100.00;101212.59;4117762;28;20113;-75
2021/10/01 08:25:48;;;;;;;7.93;2.08;;;15.90;99.90;;;15.49;100.00;101214.56;4118149;28;20556;-75
2021/10/01 08:27:50;;;;;;;12.07;2.97;;;16.00;99.90;;;15.52;100.00;101213.38;4118358;28;20027;-75
2021/10/01 08:29:52;;;;;;;8.73;2.47;;;16.10;99.90;;;15.65;100.00;101208.28;4126877;28;20090;-75
2021/10/01 08:32:00;;;;;;;8.68;2.33;;;16.10;99.90;;;15.65;100.00;101210.13;4117614;28;20069;-75
2021/10/01 08:34:01;;;;;;;6.40;2.15;;;16.20;99.90;;;15.64;100.00;101208.47;4117503;28;20091;-75
2021/10/01 08:36:02;;;;;;;10.00;2.58;;;16.30;99.90;;;15.70;100.00;101211.25;4118194;28;20030;-75
2021/10/01 08:38:03;;;;;;;8.73;2.08;;;16.30;99.90;;;15.76;100.00;101207.03;4118270;28;20432;-75
2021/10/01 08:40:06;;;;;;;5.82;2.20;;;16.40;99.90;;;15.76;100.00;101212.38;4116867;28;20038;-75
2021/10/01 08:42:07;;;;;;;11.45;3.03;;;16.40;99.90;;;15.77;100.00;101211.38;4117904;28;20394;-75
2021/10/01 08:44:09;;;;;;;6.43;2.08;;;16.50;99.90;;;15.83;100.00;101222.09;4116872;28;20026;-75
2021/10/01 08:46:11;;;;;;;11.23;2.50;;;16.50;99.90;;;15.87;100.00;101222.56;4116791;28;20146;-77
2021/10/01 08:48:12;;;;;;;7.47;2.10;;;16.50;99.90;;;15.90;100.00;101225.72;4116537;28;20027;-75
2021/10/01 08:50:20;;;;;;;10.23;2.50;;;16.60;99.90;;;15.84;100.00;101210.47;4123284;28;20038;-74
2021/10/01 08:52:21;;;;;;;8.10;1.90;;;16.60;99.90;;;15.96;100.00;101222.34;4117265;28;20035;-74
2021/10/01 08:54:24;;;;;;;11.20;2.10;;;16.70;99.90;;;15.95;100.00;101228.66;4117662;28;20030;-74
2021/10/01 08:56:26;;;;;;;9.20;2.40;;;16.70;99.90;;;16.00;100.00;101228.13;4118638;28;20055;-73
2021/10/01 08:58:29;;;;;;;8.13;2.00;;;16.80;99.90;;;15.95;100.00;101226.00;4118702;28;20077;-74
2021/10/01 09:00:31;;;;;;;13.52;2.08;;;16.80;99.90;;;16.03;100.00;101231.28;4117275;28;20072;-73
2021/10/01 09:02:32;;;;;;;6.35;2.38;;;16.80;99.90;;;16.04;100.00;101226.75;4117478;28;20521;-74
2021/10/01 09:04:33;;;;;;;9.13;1.92;;;16.80;99.90;;;16.16;100.00;101219.97;4118509;28;20039;-75
2021/10/01 09:06:33;;;;;;;9.50;2.17;;;16.90;99.90;;;16.23;100.00;101220.94;4116954;28;20027;-75
2021/10/01 09:08:50;;;;;;;8.30;1.95;;;17.00;99.90;;;16.18;100.00;101203.84;4117278;28;20042;-74
2021/10/01 09:11:02;;;;;;;9.93;2.22;;;16.90;99.90;;;16.10;100.00;101206.59;4118626;28;20457;-74
2021/10/01 09:13:03;;;;;;;8.27;2.22;;;16.90;99.90;;;16.08;100.00;101198.78;4117381;28;20027;-74
2021/10/01 09:15:05;;;;;;;9.40;2.30;;;16.90;99.90;;;16.07;100.00;101197.13;4117035;28;20050;-74
2021/10/01 09:17:14;;;;;;;6.47;2.13;;;16.80;99.90;;;16.12;100.00;101194.75;4116788;28;20536;-74
2021/10/01 09:19:14;;;;;;;5.80;1.80;;;16.90;99.90;;;16.04;100.00;101186.84;4118419;28;20516;-74
2021/10/01 09:21:20;;;;;;;10.98;3.05;;;16.80;99.90;;;15.93;100.00;101189.94;4118457;28;20038;-75
2021/10/01 09:23:23;;;;;;;12.00;3.83;;;16.80;99.90;;;15.98;100.00;101199.03;4118491;28;20031;-74
2021/10/01 09:25:24;;;;;;;7.95;1.95;;;16.70;99.90;;;15.97;100.00;101196.56;4117902;28;20437;-74
2021/10/01 09:27:41;;;;;;;6.88;2.28;;;16.80;99.90;;;15.99;100.00;101194.53;4118115;28;20038;-74
2021/10/01 09:29:42;;;;;;;6.32;2.25;;;16.80;99.90;;;16.03;100.00;101187.84;4118130;28;20045;-74
2021/10/01 09:31:48;;;;;;;10.25;2.67;;;16.80;99.90;;;16.04;100.00;101192.16;4117041;28;20051;-74
2021/10/01 09:33:49;;;;;;;10.35;3.63;;;16.90;99.90;;;16.13;100.00;101191.06;4117069;28;20140;-74
2021/10/01 09:35:50;;;;;;;8.88;1.92;;;17.00;99.90;;;16.12;100.00;101178.78;4115271;28;20569;-75
2021/10/01 09:38:08;;;;;;;7.80;2.47;;;17.00;99.90;;;16.16;100.00;101174.75;4114703;28;20414;-75
2021/10/01 09:40:11;;;;;;;7.65;2.85;;;17.10;99.90;;;16.20;100.00;101170.72;4116695;28;20081;-75
2021/10/01 09:42:27;;;;;;;8.95;2.28;;;17.10;99.90;;;16.19;100.00;101165.59;4116428;28;20093;-75
2021/10/01 09:44:30;;;;;;;8.55;2.35;;;17.20;99.90;;;16.22;100.00;101171.34;4117853;28;20056;-75
2021/10/01 09:46:47;;;;;;;8.68;2.00;;;17.30;99.90;;;16.31;100.00;101172.91;4116063;28;20065;-74
2021/10/01 09:48:56;;;;;;;10.38;2.60;;;17.20;99.90;;;16.27;100.00;101178.81;4132333;28;20037;-75
2021/10/01 09:51:18;;;;;;;6.32;1.88;;;17.20;99.90;;;16.22;100.00;101168.69;4104100;28;20046;-74
2021/10/01 09:53:19;;;;;;;8.05;2.92;;;17.10;99.90;;;16.18;100.00;101164.75;4115471;28;20023;-74
2021/10/01 09:55:28;;;;;;;11.73;3.20;;;17.10;99.90;;;16.13;100.00;101172.44;4117592;28;20451;-74
2021/10/01 09:57:29;;;;;;;11.63;1.92;;;17.10;99.90;;;16.14;100.00;101160.78;4116207;28;20030;-74